sensor_id;sensor_type;location;lat;lon;timestamp;temperature;humidity
35563;DHT22;21665;40.108;18.302;2023-01-28T00:01:45;5.70;99.90
35563;DHT22;21665;40.108;18.302;2023-01-28T00:04:12;5.70;99.90
35563;DHT22;21665;40.108;18.302;2023-01-28T00:06:38;5.70;99.90
35563;DHT22;21665;40.108;18.302;2023-01-28T00:09:06;5.80;99.90
35563;DHT22;21665;40.108;18.302;2023-01-28T00:11:33;5.80;99.90
35563;DHT22;21665;40.108;18.302;2023-01-28T00:13:59;5.80;99.90
35563;DHT22;21665;40.108;18.302;2023-01-28T00:16:27;5.80;99.90
35563;DHT22;21665;40.108;18.302;2023-01-28T00:18:54;5.90;99.90
35563;DHT22;21665;40.108;18.302;2023-01-28T00:21:24;5.90;99.90
35563;DHT22;21665;40.108;18.302;2023-01-28T00:23:56;5.90;99.90
35563;DHT22;21665;40.108;18.302;2023-01-28T00:26:26;5.90;99.90
35563;DHT22;21665;40.108;18.302;2023-01-28T00:28:53;5.80;99.90
35563;DHT22;21665;40.108;18.302;2023-01-28T00:31:28;5.80;99.90
35563;DHT22;21665;40.108;18.302;2023-01-28T00:34:02;5.80;99.90
35563;DHT22;21665;40.108;18.302;2023-01-28T00:36:36;5.80;99.90
35563;DHT22;21665;40.108;18.302;2023-01-28T00:39:16;5.80;99.90
35563;DHT22;21665;40.108;18.302;2023-01-28T00:41:42;5.80;99.90
35563;DHT22;21665;40.108;18.302;2023-01-28T00:44:10;5.70;99.90
35563;DHT22;21665;40.108;18.302;2023-01-28T00:46:40;5.70;99.90
35563;DHT22;21665;40.108;18.302;2023-01-28T00:49:10;5.70;99.90
35563;DHT22;21665;40.108;18.302;2023-01-28T00:51:37;5.60;99.90
35563;DHT22;21665;40.108;18.302;2023-01-28T00:54:04;5.60;99.90
35563;DHT22;21665;40.108;18.302;2023-01-28T00:56:33;5.60;99.90
35563;DHT22;21665;40.108;18.302;2023-01-28T00:59:08;5.60;99.90
35563;DHT22;21665;40.108;18.302;2023-01-28T01:01:43;5.60;99.90
35563;DHT22;21665;40.108;18.302;2023-01-28T01:04:10;5.50;99.90
35563;DHT22;21665;40.108;18.302;2023-01-28T01:06:39;5.50;99.90
35563;DHT22;21665;40.108;18.302;2023-01-28T01:09:07;5.50;99.90
35563;DHT22;21665;40.108;18.302;2023-01-28T01:11:37;5.50;99.90
35563;DHT22;21665;40.108;18.302;2023-01-28T01:14:04;5.50;99.90
35563;DHT22;21665;40.108;18.302;2023-01-28T01:16:32;5.50;99.90
35563;DHT22;21665;40.108;18.302;2023-01-28T01:19:02;5.60;99.90
35563;DHT22;21665;40.108;18.302;2023-01-28T01:21:29;5.60;99.90
35563;DHT22;21665;40.108;18.302;2023-01-28T01:23:59;5.60;99.90
35563;DHT22;21665;40.108;18.302;2023-01-28T01:26:26;5.50;99.90
35563;DHT22;21665;40.108;18.302;2023-01-28T01:28:53;5.40;99.90
35563;DHT22;21665;40.108;18.302;2023-01-28T01:31:21;5.40;99.90
35563;DHT22;21665;40.108;18.302;2023-01-28T01:33:49;5.50;99.90
35563;DHT22;21665;40.108;18.302;2023-01-28T01:36:17;5.60;99.90
35563;DHT22;21665;40.108;18.302;2023-01-28T01:38:47;5.60;99.90
35563;DHT22;21665;40.108;18.302;2023-01-28T01:41:30;5.70;99.90
35563;DHT22;21665;40.108;18.302;2023-01-28T01:44:03;5.70;99.90
35563;DHT22;21665;40.108;18.302;2023-01-28T01:46:37;5.70;99.90
35563;DHT22;21665;40.108;18.302;2023-01-28T01:49:25;5.70;99.90
35563;DHT22;21665;40.108;18.302;2023-01-28T01:52:06;5.70;99.90
35563;DHT22;21665;40.108;18.302;2023-01-28T01:54:39;5.80;99.90
35563;DHT22;21665;40.108;18.302;2023-01-28T01:57:10;5.80;99.90
35563;DHT22;21665;40.108;18.302;2023-01-28T01:59:39;5.90;99.90
35563;DHT22;21665;40.108;18.302;2023-01-28T02:02:09;5.90;99.90
35563;DHT22;21665;40.108;18.302;2023-01-28T02:04:40;6.00;99.90
35563;DHT22;21665;40.108;18.302;2023-01-28T02:07:08;6.00;99.90
35563;DHT22;21665;40.108;18.302;2023-01-28T02:09:39;5.90;99.90
35563;DHT22;21665;40.108;18.302;2023-01-28T02:12:17;5.90;99.90
35563;DHT22;21665;40.108;18.302;2023-01-28T02:17:30;5.90;99.90
35563;DHT22;21665;40.108;18.302;2023-01-28T02:20:07;5.90;99.90
35563;DHT22;21665;40.108;18.302;2023-01-28T02:23:19;5.90;99.90
35563;DHT22;21665;40.108;18.302;2023-01-28T06:29:11;7.10;99.90
35563;DHT22;21665;40.108;18.302;2023-01-28T06:31:38;7.10;99.90
35563;DHT22;21665;40.108;18.302;2023-01-28T06:34:05;7.20;99.90
35563;DHT22;21665;40.108;18.302;2023-01-28T06:36:32;7.30;99.90
35563;DHT22;21665;40.108;18.302;2023-01-28T06:41:34;7.50;99.90
35563;DHT22;21665;40.108;18.302;2023-01-28T07:54:01;11.20;99.90
35563;DHT22;21665;40.108;18.302;2023-01-28T08:50:59;12.00;99.90
35563;DHT22;21665;40.108;18.302;2023-01-28T08:53:31;12.10;99.90
35563;DHT22;21665;40.108;18.302;2023-01-28T08:56:06;12.30;99.90
35563;DHT22;21665;40.108;18.302;2023-01-28T08:58:36;12.50;99.90
35563;DHT22;21665;40.108;18.302;2023-01-28T09:01:06;12.40;99.90
35563;DHT22;21665;40.108;18.302;2023-01-28T09:03:44;12.50;99.90
35563;DHT22;21665;40.108;18.302;2023-01-28T09:06:11;12.40;99.90
35563;DHT22;21665;40.108;18.302;2023-01-28T09:08:37;12.30;99.90
35563;DHT22;21665;40.108;18.302;2023-01-28T09:11:04;12.00;99.90
35563;DHT22;21665;40.108;18.302;2023-01-28T09:13:31;11.70;99.90
35563;DHT22;21665;40.108;18.302;2023-01-28T09:15:57;11.60;99.90
35563;DHT22;21665;40.108;18.302;2023-01-28T09:18:27;11.80;99.90
35563;DHT22;21665;40.108;18.302;2023-01-28T09:23:44;11.60;99.90
35563;DHT22;21665;40.108;18.302;2023-01-28T09:26:22;11.40;99.90
35563;DHT22;21665;40.108;18.302;2023-01-28T09:29:11;11.20;99.90
35563;DHT22;21665;40.108;18.302;2023-01-28T09:32:07;10.90;99.90
35563;DHT22;21665;40.108;18.302;2023-01-28T09:34:36;10.90;99.90
35563;DHT22;21665;40.108;18.302;2023-01-28T09:37:06;10.90;99.90
35563;DHT22;21665;40.108;18.302;2023-01-28T09:39:35;10.90;99.90
35563;DHT22;21665;40.108;18.302;2023-01-28T09:42:20;11.10;99.90
35563;DHT22;21665;40.108;18.302;2023-01-28T09:47:52;11.80;99.90
35563;DHT22;21665;40.108;18.302;2023-01-28T09:50:33;11.90;99.90
35563;DHT22;21665;40.108;18.302;2023-01-28T09:53:21;11.90;99.90
35563;DHT22;21665;40.108;18.302;2023-01-28T09:55:54;11.90;99.90
35563;DHT22;21665;40.108;18.302;2023-01-28T09:58:27;11.90;99.90
35563;DHT22;21665;40.108;18.302;2023-01-28T10:01:40;12.00;99.90
35563;DHT22;21665;40.108;18.302;2023-01-28T10:04:45;12.00;99.90
35563;DHT22;21665;40.108;18.302;2023-01-28T10:07:27;12.10;99.90
35563;DHT22;21665;40.108;18.302;2023-01-28T10:13:02;12.40;99.90
35563;DHT22;21665;40.108;18.302;2023-01-28T10:15:56;12.40;99.90
35563;DHT22;21665;40.108;18.302;2023-01-28T10:19:04;12.50;99.90
35563;DHT22;21665;40.108;18.302;2023-01-28T10:21:40;12.70;99.90
35563;DHT22;21665;40.108;18.302;2023-01-28T10:24:10;12.80;99.90
35563;DHT22;21665;40.108;18.302;2023-01-28T10:26:47;13.10;99.90
35563;DHT22;21665;40.108;18.302;2023-01-28T10:29:20;13.50;99.90
35563;DHT22;21665;40.108;18.302;2023-01-28T10:34:56;13.30;99.90
35563;DHT22;21665;40.108;18.302;2023-01-28T10:37:34;13.20;99.90
35563;DHT22;21665;40.108;18.302;2023-01-28T10:40:03;12.80;99.90
35563;DHT22;21665;40.108;18.302;2023-01-28T10:42:35;12.50;99.90
35563;DHT22;21665;40.108;18.302;2023-01-28T10:45:42;12.70;99.90
35563;DHT22;21665;40.108;18.302;2023-01-28T10:48:16;13.10;99.90
35563;DHT22;21665;40.108;18.302;2023-01-28T10:51:11;13.00;99.90
35563;DHT22;21665;40.108;18.302;2023-01-28T10:53:52;12.70;99.90
35563;DHT22;21665;40.108;18.302;2023-01-28T10:56:33;12.50;99.90
35563;DHT22;21665;40.108;18.302;2023-01-28T10:59:03;12.70;99.90
35563;DHT22;21665;40.108;18.302;2023-01-28T11:01:49;13.10;99.90
35563;DHT22;21665;40.108;18.302;2023-01-28T11:04:17;13.20;99.90
35563;DHT22;21665;40.108;18.302;2023-01-28T11:06:57;13.30;99.90
35563;DHT22;21665;40.108;18.302;2023-01-28T11:09:33;13.30;99.90
35563;DHT22;21665;40.108;18.302;2023-01-28T11:12:20;13.20;99.90
35563;DHT22;21665;40.108;18.302;2023-01-28T11:14:59;13.00;99.90
35563;DHT22;21665;40.108;18.302;2023-01-28T11:17:36;13.10;99.90
35563;DHT22;21665;40.108;18.302;2023-01-28T11:20:34;12.80;99.90
35563;DHT22;21665;40.108;18.302;2023-01-28T11:23:03;12.60;99.90
35563;DHT22;21665;40.108;18.302;2023-01-28T11:25:34;12.60;99.90
35563;DHT22;21665;40.108;18.302;2023-01-28T11:28:07;12.90;99.90
35563;DHT22;21665;40.108;18.302;2023-01-28T11:30:40;12.90;99.90
35563;DHT22;21665;40.108;18.302;2023-01-28T11:33:29;12.80;99.90
35563;DHT22;21665;40.108;18.302;2023-01-28T11:36:05;12.50;99.90
35563;DHT22;21665;40.108;18.302;2023-01-28T11:38:33;12.50;99.90
35563;DHT22;21665;40.108;18.302;2023-01-28T11:41:00;12.70;99.90
35563;DHT22;21665;40.108;18.302;2023-01-28T11:43:30;12.80;99.90
35563;DHT22;21665;40.108;18.302;2023-01-28T11:46:07;12.80;99.90
35563;DHT22;21665;40.108;18.302;2023-01-28T11:51:39;12.40;99.90
35563;DHT22;21665;40.108;18.302;2023-01-28T11:54:46;12.20;99.90
35563;DHT22;21665;40.108;18.302;2023-01-28T11:57:30;12.10;99.90
35563;DHT22;21665;40.108;18.302;2023-01-28T12:03:36;12.10;99.90
35563;DHT22;21665;40.108;18.302;2023-01-28T12:05:51;12.10;99.90
35563;DHT22;21665;40.108;18.302;2023-01-28T12:29:43;12.20;99.90
35563;DHT22;21665;40.108;18.302;2023-01-28T12:32:25;12.10;99.90
35563;DHT22;21665;40.108;18.302;2023-01-28T12:41:10;12.10;99.90
35563;DHT22;21665;40.108;18.302;2023-01-28T12:43:56;12.40;99.90
35563;DHT22;21665;40.108;18.302;2023-01-28T12:49:42;12.60;99.90
35563;DHT22;21665;40.108;18.302;2023-01-28T12:52:24;12.70;99.90
35563;DHT22;21665;40.108;18.302;2023-01-28T12:55:19;12.70;99.90
35563;DHT22;21665;40.108;18.302;2023-01-28T12:57:49;12.70;99.90
35563;DHT22;21665;40.108;18.302;2023-01-28T13:01:04;12.70;99.90
35563;DHT22;21665;40.108;18.302;2023-01-28T13:04:47;12.40;99.90
35563;DHT22;21665;40.108;18.302;2023-01-28T13:06:43;12.10;99.90
35563;DHT22;21665;40.108;18.302;2023-01-28T13:09:30;12.00;99.90
35563;DHT22;21665;40.108;18.302;2023-01-28T13:25:49;12.40;99.90
35563;DHT22;21665;40.108;18.302;2023-01-28T13:28:37;12.20;99.90
35563;DHT22;21665;40.108;18.302;2023-01-28T13:31:21;12.10;99.90
35563;DHT22;21665;40.108;18.302;2023-01-28T13:40:23;11.90;99.90
35563;DHT22;21665;40.108;18.302;2023-01-28T13:43:04;12.20;99.90
35563;DHT22;21665;40.108;18.302;2023-01-28T13:45:32;12.00;99.90
35563;DHT22;21665;40.108;18.302;2023-01-28T13:50:45;12.00;99.90
35563;DHT22;21665;40.108;18.302;2023-01-28T13:53:42;12.00;99.90
35563;DHT22;21665;40.108;18.302;2023-01-28T13:56:22;12.00;99.90
35563;DHT22;21665;40.108;18.302;2023-01-28T14:05:13;11.90;99.90
35563;DHT22;21665;40.108;18.302;2023-01-28T14:11:33;11.80;99.90
35563;DHT22;21665;40.108;18.302;2023-01-28T14:24:30;11.70;99.90
35563;DHT22;21665;40.108;18.302;2023-01-28T14:36:56;11.60;99.90
35563;DHT22;21665;40.108;18.302;2023-01-28T15:10:06;11.20;99.90
35563;DHT22;21665;40.108;18.302;2023-01-28T15:21:59;10.80;99.90
35563;DHT22;21665;40.108;18.302;2023-01-28T16:26:24;9.30;99.90
35563;DHT22;21665;40.108;18.302;2023-01-28T16:28:54;9.30;99.90
35563;DHT22;21665;40.108;18.302;2023-01-28T16:31:21;9.20;99.90
35563;DHT22;21665;40.108;18.302;2023-01-28T16:33:48;9.10;99.90
35563;DHT22;21665;40.108;18.302;2023-01-28T16:36:16;9.10;99.90
35563;DHT22;21665;40.108;18.302;2023-01-28T16:38:44;9.00;99.90
35563;DHT22;21665;40.108;18.302;2023-01-28T16:41:25;9.00;99.90
35563;DHT22;21665;40.108;18.302;2023-01-28T16:43:58;8.90;99.90
35563;DHT22;21665;40.108;18.302;2023-01-28T16:46:31;8.90;99.90
35563;DHT22;21665;40.108;18.302;2023-01-28T16:49:02;8.90;99.90
35563;DHT22;21665;40.108;18.302;2023-01-28T16:51:28;8.80;99.90
35563;DHT22;21665;40.108;18.302;2023-01-28T16:53:56;8.80;99.90
35563;DHT22;21665;40.108;18.302;2023-01-28T16:56:24;8.80;99.90
35563;DHT22;21665;40.108;18.302;2023-01-28T16:58:52;8.80;99.90
35563;DHT22;21665;40.108;18.302;2023-01-28T17:01:19;8.70;99.90
35563;DHT22;21665;40.108;18.302;2023-01-28T17:03:51;8.70;99.90
35563;DHT22;21665;40.108;18.302;2023-01-28T17:06:36;8.70;99.90
35563;DHT22;21665;40.108;18.302;2023-01-28T17:09:24;8.60;99.90
35563;DHT22;21665;40.108;18.302;2023-01-28T17:12:06;8.60;99.90
35563;DHT22;21665;40.108;18.302;2023-01-28T17:15:03;8.60;99.90
35563;DHT22;21665;40.108;18.302;2023-01-28T17:31:40;8.40;99.90
35563;DHT22;21665;40.108;18.302;2023-01-28T17:34:10;8.30;99.90
35563;DHT22;21665;40.108;18.302;2023-01-28T17:36:43;8.30;99.90
35563;DHT22;21665;40.108;18.302;2023-01-28T17:58:50;8.10;99.90
35563;DHT22;21665;40.108;18.302;2023-01-28T18:01:43;8.10;99.90
35563;DHT22;21665;40.108;18.302;2023-01-28T18:04:46;8.10;99.90
35563;DHT22;21665;40.108;18.302;2023-01-28T18:13:58;8.10;99.90
35563;DHT22;21665;40.108;18.302;2023-01-28T18:27:57;8.00;99.90
35563;DHT22;21665;40.108;18.302;2023-01-28T18:33:58;7.90;99.90
35563;DHT22;21665;40.108;18.302;2023-01-28T18:42:18;7.80;99.90
35563;DHT22;21665;40.108;18.302;2023-01-28T18:44:45;7.80;99.90
35563;DHT22;21665;40.108;18.302;2023-01-28T18:47:34;7.80;99.90
35563;DHT22;21665;40.108;18.302;2023-01-28T18:50:11;7.70;99.90
35563;DHT22;21665;40.108;18.302;2023-01-28T18:52:38;7.60;99.90
35563;DHT22;21665;40.108;18.302;2023-01-28T18:55:08;7.60;99.90
35563;DHT22;21665;40.108;18.302;2023-01-28T19:15:13;7.60;99.90
35563;DHT22;21665;40.108;18.302;2023-01-28T19:20:15;7.60;99.90
35563;DHT22;21665;40.108;18.302;2023-01-28T19:22:42;7.50;99.90
35563;DHT22;21665;40.108;18.302;2023-01-28T19:25:11;7.60;99.90
35563;DHT22;21665;40.108;18.302;2023-01-28T19:27:38;7.60;99.90
35563;DHT22;21665;40.108;18.302;2023-01-28T19:30:05;7.60;99.90
35563;DHT22;21665;40.108;18.302;2023-01-28T19:32:35;7.50;99.90
35563;DHT22;21665;40.108;18.302;2023-01-28T19:35:24;7.60;99.90
35563;DHT22;21665;40.108;18.302;2023-01-28T19:41:31;7.50;99.90
35563;DHT22;21665;40.108;18.302;2023-01-28T19:44:08;7.50;99.90
35563;DHT22;21665;40.108;18.302;2023-01-28T19:46:48;7.60;99.90
35563;DHT22;21665;40.108;18.302;2023-01-28T19:49:17;7.60;99.90
35563;DHT22;21665;40.108;18.302;2023-01-28T19:51:44;7.60;99.90
35563;DHT22;21665;40.108;18.302;2023-01-28T20:00:13;7.60;99.90
35563;DHT22;21665;40.108;18.302;2023-01-28T20:02:39;7.60;99.90
35563;DHT22;21665;40.108;18.302;2023-01-28T20:05:08;7.60;99.90
35563;DHT22;21665;40.108;18.302;2023-01-28T20:07:35;7.60;99.90
35563;DHT22;21665;40.108;18.302;2023-01-28T20:10:08;7.60;99.90
35563;DHT22;21665;40.108;18.302;2023-01-28T20:12:53;7.60;99.90
35563;DHT22;21665;40.108;18.302;2023-01-28T20:16:30;7.50;99.90
35563;DHT22;21665;40.108;18.302;2023-01-28T20:18:59;7.50;99.90
35563;DHT22;21665;40.108;18.302;2023-01-28T20:21:27;7.50;99.90
35563;DHT22;21665;40.108;18.302;2023-01-28T20:23:57;7.60;99.90
35563;DHT22;21665;40.108;18.302;2023-01-28T20:26:27;7.50;99.90
35563;DHT22;21665;40.108;18.302;2023-01-28T20:28:59;7.60;99.90
35563;DHT22;21665;40.108;18.302;2023-01-28T20:31:54;7.50;99.90
35563;DHT22;21665;40.108;18.302;2023-01-28T20:34:21;7.60;99.90
35563;DHT22;21665;40.108;18.302;2023-01-28T20:36:51;7.60;99.90
35563;DHT22;21665;40.108;18.302;2023-01-28T20:39:19;7.50;99.90
35563;DHT22;21665;40.108;18.302;2023-01-28T20:41:45;7.60;99.90
35563;DHT22;21665;40.108;18.302;2023-01-28T20:44:12;7.50;99.90
35563;DHT22;21665;40.108;18.302;2023-01-28T20:46:39;7.50;99.90
35563;DHT22;21665;40.108;18.302;2023-01-28T20:49:07;7.60;99.90
35563;DHT22;21665;40.108;18.302;2023-01-28T20:51:35;7.60;99.90
35563;DHT22;21665;40.108;18.302;2023-01-28T20:54:03;7.50;99.90
35563;DHT22;21665;40.108;18.302;2023-01-28T20:56:32;7.40;99.90
35563;DHT22;21665;40.108;18.302;2023-01-28T20:59:02;7.40;99.90
35563;DHT22;21665;40.108;18.302;2023-01-28T21:01:32;7.40;99.90
35563;DHT22;21665;40.108;18.302;2023-01-28T21:03:59;7.40;99.90
35563;DHT22;21665;40.108;18.302;2023-01-28T21:06:26;7.50;99.90
35563;DHT22;21665;40.108;18.302;2023-01-28T21:08:56;7.40;99.90
35563;DHT22;21665;40.108;18.302;2023-01-28T21:11:26;7.40;99.90
35563;DHT22;21665;40.108;18.302;2023-01-28T21:13:52;7.40;99.90
35563;DHT22;21665;40.108;18.302;2023-01-28T21:16:19;7.40;99.90
35563;DHT22;21665;40.108;18.302;2023-01-28T21:18:46;7.40;99.90
35563;DHT22;21665;40.108;18.302;2023-01-28T21:21:24;7.40;99.90
35563;DHT22;21665;40.108;18.302;2023-01-28T21:23:52;7.30;99.90
35563;DHT22;21665;40.108;18.302;2023-01-28T21:26:25;7.30;99.90
35563;DHT22;21665;40.108;18.302;2023-01-28T21:28:51;7.20;99.90
35563;DHT22;21665;40.108;18.302;2023-01-28T21:31:21;7.20;99.90
35563;DHT22;21665;40.108;18.302;2023-01-28T21:33:51;7.20;99.90
35563;DHT22;21665;40.108;18.302;2023-01-28T21:36:20;7.10;99.90
35563;DHT22;21665;40.108;18.302;2023-01-28T21:38:55;7.10;99.90
35563;DHT22;21665;40.108;18.302;2023-01-28T21:41:23;7.10;99.90
35563;DHT22;21665;40.108;18.302;2023-01-28T21:43:50;7.10;99.90
35563;DHT22;21665;40.108;18.302;2023-01-28T21:46:24;7.20;99.90
35563;DHT22;21665;40.108;18.302;2023-01-28T21:48:57;7.20;99.90
35563;DHT22;21665;40.108;18.302;2023-01-28T21:51:25;7.20;99.90
35563;DHT22;21665;40.108;18.302;2023-01-28T21:54:06;7.20;99.90
35563;DHT22;21665;40.108;18.302;2023-01-28T21:56:33;7.30;99.90
35563;DHT22;21665;40.108;18.302;2023-01-28T21:59:00;7.20;99.90
35563;DHT22;21665;40.108;18.302;2023-01-28T22:01:45;7.20;99.90
35563;DHT22;21665;40.108;18.302;2023-01-28T22:04:12;7.30;99.90
35563;DHT22;21665;40.108;18.302;2023-01-28T22:06:41;7.30;99.90
35563;DHT22;21665;40.108;18.302;2023-01-28T22:09:10;7.30;99.90
35563;DHT22;21665;40.108;18.302;2023-01-28T22:11:40;7.30;99.90
35563;DHT22;21665;40.108;18.302;2023-01-28T22:14:10;7.30;99.90
35563;DHT22;21665;40.108;18.302;2023-01-28T22:16:37;7.40;99.90
35563;DHT22;21665;40.108;18.302;2023-01-28T22:19:04;7.30;99.90
35563;DHT22;21665;40.108;18.302;2023-01-28T22:21:32;7.40;99.90
35563;DHT22;21665;40.108;18.302;2023-01-28T22:23:58;7.40;99.90
35563;DHT22;21665;40.108;18.302;2023-01-28T22:26:25;7.30;99.90
35563;DHT22;21665;40.108;18.302;2023-01-28T22:28:51;7.30;99.90
35563;DHT22;21665;40.108;18.302;2023-01-28T22:31:18;7.30;99.90
35563;DHT22;21665;40.108;18.302;2023-01-28T22:33:45;7.30;99.90
35563;DHT22;21665;40.108;18.302;2023-01-28T22:36:14;7.30;99.90
35563;DHT22;21665;40.108;18.302;2023-01-28T22:38:42;7.30;99.90
35563;DHT22;21665;40.108;18.302;2023-01-28T22:41:12;7.20;99.90
35563;DHT22;21665;40.108;18.302;2023-01-28T22:43:42;7.20;99.90
35563;DHT22;21665;40.108;18.302;2023-01-28T22:46:09;7.10;99.90
35563;DHT22;21665;40.108;18.302;2023-01-28T22:48:38;7.20;99.90
35563;DHT22;21665;40.108;18.302;2023-01-28T22:51:10;7.20;99.90
35563;DHT22;21665;40.108;18.302;2023-01-28T22:53:39;7.10;99.90
35563;DHT22;21665;40.108;18.302;2023-01-28T22:56:07;7.10;99.90
35563;DHT22;21665;40.108;18.302;2023-01-28T22:58:34;7.10;99.90
35563;DHT22;21665;40.108;18.302;2023-01-28T23:01:01;7.10;99.90
35563;DHT22;21665;40.108;18.302;2023-01-28T23:03:28;7.10;99.90
35563;DHT22;21665;40.108;18.302;2023-01-28T23:05:59;7.10;99.90
35563;DHT22;21665;40.108;18.302;2023-01-28T23:08:29;7.10;99.90
35563;DHT22;21665;40.108;18.302;2023-01-28T23:10:59;7.10;99.90
35563;DHT22;21665;40.108;18.302;2023-01-28T23:13:29;7.10;99.90
35563;DHT22;21665;40.108;18.302;2023-01-28T23:16:16;7.10;99.90
35563;DHT22;21665;40.108;18.302;2023-01-28T23:19:01;7.10;99.90
35563;DHT22;21665;40.108;18.302;2023-01-28T23:21:46;7.20;99.90
35563;DHT22;21665;40.108;18.302;2023-01-28T23:24:33;7.20;99.90
35563;DHT22;21665;40.108;18.302;2023-01-28T23:27:00;7.20;99.90
35563;DHT22;21665;40.108;18.302;2023-01-28T23:29:30;7.20;99.90
35563;DHT22;21665;40.108;18.302;2023-01-28T23:32:00;7.20;99.90
35563;DHT22;21665;40.108;18.302;2023-01-28T23:34:34;7.10;99.90
35563;DHT22;21665;40.108;18.302;2023-01-28T23:37:02;7.20;99.90
35563;DHT22;21665;40.108;18.302;2023-01-28T23:39:29;7.10;99.90
35563;DHT22;21665;40.108;18.302;2023-01-28T23:41:57;7.10;99.90
35563;DHT22;21665;40.108;18.302;2023-01-28T23:44:30;7.10;99.90
35563;DHT22;21665;40.108;18.302;2023-01-28T23:46:56;7.10;99.90
35563;DHT22;21665;40.108;18.302;2023-01-28T23:49:23;7.10;99.90
35563;DHT22;21665;40.108;18.302;2023-01-28T23:51:49;7.10;99.90
35563;DHT22;21665;40.108;18.302;2023-01-28T23:54:16;7.20;99.90
35563;DHT22;21665;40.108;18.302;2023-01-28T23:56:43;7.10;99.90
35563;DHT22;21665;40.108;18.302;2023-01-28T23:59:09;7.10;99.90
